Time;durP1;ratioP1;P1;durP2;ratioP2;P2;SDS_P1;SDS_P2;PMS_P1;PMS_P2;Temp;Humidity;BMP_temperature;BMP_pressure;BME280_temperature;BME280_humidity;BME280_pressure;Samples;Min_cycle;Max_cycle;Signal;HPM_P1;HPM_P2
2022/10/15 00:00:26;;;;;;;1.17;1.07;;;19.70;77.70;;;;;;5043461;28;20567;-46
2022/10/15 00:02:52;;;;;;;1.40;1.20;;;19.50;77.80;;;;;;5045773;28;20319;-49
2022/10/15 00:05:19;;;;;;;1.10;1.00;;;19.30;79.30;;;;;;5050416;28;20189;-47
2022/10/15 00:07:44;;;;;;;1.27;1.17;;;19.20;80.60;;;;;;5047272;28;20284;-46
2022/10/15 00:10:10;;;;;;;1.30;1.17;;;19.40;79.90;;;;;;5044211;28;20593;-48
2022/10/15 00:12:36;;;;;;;1.00;1.00;;;19.60;78.80;;;;;;5058519;28;20194;-46
2022/10/15 00:15:02;;;;;;;4.70;1.93;;;19.70;78.00;;;;;;5047911;28;20192;-46
2022/10/15 00:17:28;;;;;;;11.00;2.73;;;19.80;77.90;;;;;;5050714;28;20226;-47
2022/10/15 00:19:54;;;;;;;2.33;1.30;;;19.90;77.10;;;;;;5048686;28;20502;-47
2022/10/15 00:22:19;;;;;;;2.43;1.00;;;20.10;76.70;;;;;;5050875;28;20194;-46
2022/10/15 00:24:45;;;;;;;1.00;0.83;;;20.20;75.90;;;;;;5044540;28;20192;-49
2022/10/15 00:27:10;;;;;;;1.30;1.20;;;20.20;75.50;;;;;;5048807;28;20201;-46
2022/10/15 00:29:36;;;;;;;0.77;0.77;;;20.10;75.70;;;;;;5047697;28;20216;-48
2022/10/15 00:32:01;;;;;;;4.07;1.20;;;20.20;75.60;;;;;;5045554;28;20648;-49
2022/10/15 00:34:27;;;;;;;1.60;1.00;;;20.20;75.30;;;;;;5045680;28;20193;-49
2022/10/15 00:36:52;;;;;;;2.20;1.40;;;20.20;75.60;;;;;;5041346;28;20215;-48
2022/10/15 00:39:18;;;;;;;3.80;1.10;;;20.10;76.30;;;;;;5046568;28;20227;-48
2022/10/15 00:41:44;;;;;;;1.20;1.10;;;20.20;75.90;;;;;;5041649;28;20193;-52
2022/10/15 00:44:27;;;;;;;1.67;0.80;;;20.20;75.30;;;;;;5045974;28;20197;-48
2022/10/15 00:46:58;;;;;;;0.90;0.90;;;20.20;74.80;;;;;;5046450;28;20447;-51
2022/10/15 00:49:31;;;;;;;0.90;0.90;;;19.90;77.10;;;;;;5049484;28;20454;-47
2022/10/15 00:52:00;;;;;;;1.60;1.13;;;19.90;76.90;;;;;;5043153;28;20494;-47
2022/10/15 00:54:30;;;;;;;1.33;1.00;;;20.00;76.90;;;;;;5040993;28;20953;-49
2022/10/15 00:56:56;;;;;;;1.60;1.07;;;20.00;76.50;;;;;;5040036;28;20434;-47
2022/10/15 00:59:25;;;;;;;4.40;1.30;;;20.20;76.10;;;;;;5037939;28;20846;-48
2022/10/15 01:01:51;;;;;;;1.03;0.90;;;20.20;76.30;;;;;;5048541;28;20199;-46
2022/10/15 01:04:17;;;;;;;0.97;0.97;;;20.30;75.80;;;;;;5046414;28;20788;-47
2022/10/15 01:06:44;;;;;;;3.53;0.97;;;20.20;75.90;;;;;;5045104;28;21240;-46
2022/10/15 01:09:11;;;;;;;2.40;0.70;;;20.30;75.40;;;;;;5048603;28;20817;-46
2022/10/15 01:11:51;;;;;;;1.70;0.87;;;20.40;75.20;;;;;;5042288;28;20591;-46
2022/10/15 01:14:49;;;;;;;0.80;0.80;;;20.30;75.60;;;;;;5046256;28;20443;-46
2022/10/15 01:17:20;;;;;;;1.20;1.10;;;20.30;75.50;;;;;;5042488;28;20849;-49
2022/10/15 01:20:09;;;;;;;0.80;0.80;;;20.40;75.60;;;;;;5044267;28;22684;-47
2022/10/15 01:22:46;;;;;;;0.90;0.80;;;20.40;75.50;;;;;;5040948;28;20863;-49
2022/10/15 01:25:34;;;;;;;0.80;0.80;;;20.20;76.10;;;;;;5039053;28;20453;-49
2022/10/15 01:28:28;;;;;;;8.17;0.80;;;20.10;76.80;;;;;;5043206;28;20459;-46
2022/10/15 01:31:01;;;;;;;0.63;0.63;;;19.90;77.70;;;;;;5037265;28;20494;-46
2022/10/15 01:33:45;;;;;;;0.70;0.70;;;20.00;77.30;;;;;;5043895;28;20459;-47
2022/10/15 01:36:29;;;;;;;0.80;0.70;;;20.10;77.30;;;;;;5045509;28;20542;-49
2022/10/15 01:38:59;;;;;;;0.73;0.70;;;20.10;77.10;;;;;;5043490;28;20459;-46
2022/10/15 01:41:40;;;;;;;0.80;0.80;;;20.10;76.80;;;;;;5045732;28;20802;-46
2022/10/15 01:44:11;;;;;;;2.27;0.80;;;20.10;76.70;;;;;;5050344;28;21047;-48
2022/10/15 01:46:45;;;;;;;2.80;1.10;;;20.10;77.10;;;;;;5045834;28;20804;-47
2022/10/15 01:49:14;;;;;;;0.80;0.80;;;20.10;76.90;;;;;;5047955;28;21062;-46
2022/10/15 01:51:42;;;;;;;0.77;0.77;;;20.10;77.50;;;;;;5048364;28;20581;-47
2022/10/15 01:54:13;;;;;;;1.73;0.60;;;20.20;77.10;;;;;;5049195;28;20443;-46
2022/10/15 01:56:39;;;;;;;0.70;0.70;;;20.20;76.80;;;;;;5051474;28;20934;-46
2022/10/15 01:59:07;;;;;;;0.70;0.70;;;20.20;76.90;;;;;;5048683;28;20442;-46
2022/10/15 02:01:33;;;;;;;0.70;0.70;;;20.20;77.10;;;;;;5046826;28;20861;-48
2022/10/15 02:03:58;;;;;;;1.53;1.00;;;20.10;77.40;;;;;;5049045;28;20572;-47
2022/10/15 02:06:36;;;;;;;0.67;0.67;;;20.10;77.70;;;;;;5047706;28;20188;-47
2022/10/15 02:09:13;;;;;;;1.47;0.63;;;20.20;77.50;;;;;;5047442;28;20223;-48
2022/10/15 02:12:03;;;;;;;0.60;0.60;;;20.20;77.30;;;;;;5045294;28;20540;-47
2022/10/15 02:14:42;;;;;;;0.80;0.70;;;20.20;77.40;;;;;;5049188;28;20459;-47
2022/10/15 02:17:09;;;;;;;1.53;0.80;;;20.30;77.50;;;;;;5046976;28;20450;-46
2022/10/15 02:19:48;;;;;;;3.30;0.97;;;20.30;77.30;;;;;;5045242;28;20466;-47
2022/10/15 02:22:18;;;;;;;0.80;0.70;;;20.30;77.30;;;;;;5046555;28;20469;-46
2022/10/15 02:25:05;;;;;;;2.10;0.60;;;20.30;77.50;;;;;;5047858;28;20497;-47
2022/10/15 02:27:32;;;;;;;0.60;0.60;;;20.20;78.00;;;;;;5042038;28;20536;-46
2022/10/15 02:30:01;;;;;;;0.70;0.60;;;20.30;78.00;;;;;;5045045;28;20506;-47
2022/10/15 02:32:30;;;;;;;0.60;0.60;;;20.30;77.90;;;;;;5044491;28;20471;-47
2022/10/15 02:34:56;;;;;;;0.50;0.50;;;20.20;78.10;;;;;;5048955;28;20470;-47
2022/10/15 02:37:24;;;;;;;0.60;0.60;;;20.30;77.90;;;;;;5048946;28;20509;-46
2022/10/15 02:39:50;;;;;;;0.70;0.70;;;20.30;78.00;;;;;;5046781;28;20811;-47
2022/10/15 02:42:16;;;;;;;0.50;0.50;;;20.20;78.40;;;;;;5050179;28;20419;-46
2022/10/15 02:44:42;;;;;;;0.73;0.60;;;20.20;78.30;;;;;;5050642;28;21142;-46
2022/10/15 02:47:08;;;;;;;0.60;0.60;;;20.20;78.40;;;;;;5048094;28;20502;-49
2022/10/15 02:49:34;;;;;;;2.00;0.60;;;20.20;79.40;;;;;;5051114;28;20192;-47
2022/10/15 02:51:59;;;;;;;0.50;0.50;;;20.00;80.00;;;;;;5052387;28;20504;-47
2022/10/15 02:54:25;;;;;;;1.17;0.50;;;19.90;80.40;;;;;;5051875;28;20192;-46
2022/10/15 02:56:50;;;;;;;1.00;0.50;;;19.90;81.10;;;;;;5049705;28;20318;-48
2022/10/15 02:59:18;;;;;;;1.00;0.63;;;19.80;81.70;;;;;;5051941;28;20558;-47
2022/10/15 03:01:44;;;;;;;0.60;0.60;;;19.50;83.00;;;;;;5051800;28;20204;-46
2022/10/15 03:04:09;;;;;;;1.13;0.70;;;19.50;83.10;;;;;;5050878;28;20450;-47
2022/10/15 03:06:35;;;;;;;1.60;0.90;;;19.30;84.80;;;;;;5051646;28;20200;-46
2022/10/15 03:09:01;;;;;;;1.13;0.80;;;19.50;84.30;;;;;;5051265;28;20192;-46
2022/10/15 03:11:26;;;;;;;0.60;0.57;;;19.60;84.20;;;;;;5049988;28;20220;-50
2022/10/15 03:13:52;;;;;;;1.00;0.70;;;19.60;83.70;;;;;;5059037;28;20831;-46
2022/10/15 03:16:17;;;;;;;3.07;0.67;;;19.70;83.10;;;;;;5054631;28;20199;-47
2022/10/15 03:18:43;;;;;;;0.93;0.73;;;19.80;83.30;;;;;;5052094;28;20703;-47
2022/10/15 03:21:08;;;;;;;4.00;0.80;;;19.90;82.50;;;;;;5047474;28;20197;-49
2022/10/15 03:23:34;;;;;;;2.70;0.83;;;20.00;82.00;;;;;;5051983;28;20237;-47
2022/10/15 03:26:00;;;;;;;1.60;0.60;;;19.90;82.10;;;;;;5049110;28;20192;-47
2022/10/15 03:28:25;;;;;;;1.00;0.50;;;19.80;82.70;;;;;;5054321;28;20629;-45
2022/10/15 03:30:51;;;;;;;0.60;0.60;;;19.70;84.20;;;;;;5056734;28;20220;-46
2022/10/15 03:33:17;;;;;;;1.80;0.67;;;19.80;83.50;;;;;;5041446;28;20394;-49
2022/10/15 03:35:42;;;;;;;1.17;0.60;;;20.00;83.30;;;;;;5049558;28;20504;-47
2022/10/15 03:38:08;;;;;;;4.10;0.80;;;20.10;82.20;;;;;;5046175;28;20192;-46
2022/10/15 03:40:34;;;;;;;1.80;0.70;;;20.20;82.30;;;;;;5049165;28;20201;-48
2022/10/15 03:43:00;;;;;;;0.80;0.80;;;20.20;81.10;;;;;;5045414;28;20261;-46
2022/10/15 03:45:26;;;;;;;0.90;0.80;;;20.40;80.30;;;;;;5046582;28;20431;-47
2022/10/15 03:47:51;;;;;;;0.73;0.73;;;20.40;79.60;;;;;;5049723;28;20196;-47
2022/10/15 03:50:17;;;;;;;0.70;0.70;;;20.50;79.80;;;;;;5039770;28;20501;-52
2022/10/15 03:52:43;;;;;;;0.60;0.50;;;20.50;79.50;;;;;;5047535;28;20235;-46
2022/10/15 03:55:09;;;;;;;0.70;0.60;;;20.50;79.50;;;;;;5047488;28;20196;-47
2022/10/15 03:57:36;;;;;;;2.67;1.10;;;20.30;80.40;;;;;;5045787;28;20671;-46
2022/10/15 04:00:04;;;;;;;1.30;0.80;;;20.30;80.40;;;;;;5049164;28;20549;-46
2022/10/15 04:02:30;;;;;;;0.83;0.60;;;20.30;80.50;;;;;;5038044;28;20861;-46
2022/10/15 04:04:56;;;;;;;2.70;0.67;;;20.30;80.70;;;;;;5042140;28;20446;-46
2022/10/15 04:07:22;;;;;;;0.60;0.50;;;20.10;81.60;;;;;;5047091;28;20747;-47
2022/10/15 04:09:48;;;;;;;1.33;0.60;;;20.10;82.30;;;;;;5047215;28;20451;-46
2022/10/15 04:12:14;;;;;;;0.73;0.60;;;20.30;81.80;;;;;;5047255;28;20431;-46
2022/10/15 04:14:40;;;;;;;0.40;0.40;;;20.20;82.10;;;;;;5043044;28;20672;-49
2022/10/15 04:17:06;;;;;;;0.60;0.60;;;20.20;82.50;;;;;;5040025;28;20467;-46
2022/10/15 04:19:32;;;;;;;0.50;0.50;;;20.30;81.80;;;;;;5047064;28;20758;-49
2022/10/15 04:21:57;;;;;;;0.50;0.50;;;20.30;81.80;;;;;;5045738;28;20494;-49
2022/10/15 04:24:23;;;;;;;0.70;0.70;;;20.30;82.00;;;;;;5049279;28;20283;-47
2022/10/15 04:26:49;;;;;;;0.77;0.77;;;20.40;81.60;;;;;;5046946;28;20596;-46
2022/10/15 04:29:15;;;;;;;0.70;0.70;;;20.50;80.90;;;;;;5048726;28;20192;-47
2022/10/15 04:31:41;;;;;;;1.30;0.63;;;20.60;80.40;;;;;;5048115;28;20611;-48
2022/10/15 04:34:07;;;;;;;0.70;0.70;;;20.60;79.90;;;;;;5045981;28;20445;-48
2022/10/15 04:36:33;;;;;;;0.60;0.60;;;20.70;79.70;;;;;;5048485;28;20204;-50
2022/10/15 04:39:00;;;;;;;3.20;0.73;;;20.70;79.60;;;;;;5045652;28;20929;-46
2022/10/15 04:41:25;;;;;;;1.13;0.60;;;20.70;79.70;;;;;;5047792;28;20435;-46
2022/10/15 04:43:51;;;;;;;0.50;0.43;;;20.70;79.80;;;;;;5040669;28;20775;-47
2022/10/15 04:46:16;;;;;;;0.70;0.60;;;20.70;79.30;;;;;;5045535;28;20193;-49
2022/10/15 04:48:42;;;;;;;1.03;0.60;;;20.70;79.60;;;;;;5041015;28;20275;-47
2022/10/15 04:51:13;;;;;;;0.90;0.60;;;20.70;79.10;;;;;;5044595;28;20274;-47
2022/10/15 04:53:39;;;;;;;0.70;0.70;;;20.80;79.00;;;;;;5044965;28;20335;-47
2022/10/15 04:56:09;;;;;;;0.60;0.60;;;20.80;78.90;;;;;;5039729;28;20922;-48
2022/10/15 04:58:35;;;;;;;1.10;0.63;;;20.80;79.00;;;;;;5039007;28;20223;-49
2022/10/15 05:01:03;;;;;;;1.10;0.60;;;20.80;78.80;;;;;;5047826;28;20542;-47
2022/10/15 05:03:29;;;;;;;0.70;0.70;;;20.80;78.50;;;;;;5047461;28;20525;-48
2022/10/15 05:06:03;;;;;;;0.70;0.70;;;20.80;78.30;;;;;;5042032;28;20446;-48
2022/10/15 05:08:33;;;;;;;1.83;0.90;;;20.90;78.20;;;;;;5045821;28;20447;-49
2022/10/15 05:11:03;;;;;;;1.03;0.60;;;20.90;77.90;;;;;;5048761;28;20605;-46
2022/10/15 05:13:29;;;;;;;0.63;0.63;;;20.90;77.80;;;;;;5044866;28;20455;-47
2022/10/15 05:15:55;;;;;;;0.70;0.70;;;20.70;78.60;;;;;;5050015;28;20467;-47
2022/10/15 05:18:21;;;;;;;3.93;1.10;;;20.80;78.60;;;;;;5044985;28;20464;-47
2022/10/15 05:20:46;;;;;;;1.83;1.00;;;20.80;78.50;;;;;;5042462;28;20245;-46
2022/10/15 05:23:12;;;;;;;2.50;0.90;;;20.90;78.50;;;;;;5042768;28;20262;-46
2022/10/15 05:25:38;;;;;;;4.00;0.90;;;21.00;78.30;;;;;;5045799;28;20230;-47
2022/10/15 05:28:04;;;;;;;0.83;0.77;;;21.00;77.80;;;;;;5047151;28;20568;-49
2022/10/15 05:30:29;;;;;;;2.30;1.10;;;21.00;77.50;;;;;;5042604;28;20221;-48
2022/10/15 05:32:55;;;;;;;4.50;0.70;;;21.00;77.30;;;;;;5047875;28;20216;-48
2022/10/15 05:35:21;;;;;;;2.07;0.70;;;20.80;77.30;;;;;;5043146;28;20195;-46
2022/10/15 05:37:47;;;;;;;3.27;1.20;;;20.80;77.60;;;;;;5038270;28;20267;-47
2022/10/15 05:40:13;;;;;;;1.03;0.93;;;20.90;77.50;;;;;;5039702;28;20648;-48
2022/10/15 05:42:39;;;;;;;2.40;1.10;;;21.00;77.20;;;;;;5038475;28;20477;-51
2022/10/15 05:45:05;;;;;;;1.63;1.20;;;21.00;77.10;;;;;;5046126;28;20669;-47
2022/10/15 05:47:31;;;;;;;1.60;1.00;;;21.00;76.70;;;;;;5047003;28;20767;-47
2022/10/15 05:49:56;;;;;;;2.83;1.33;;;21.10;76.50;;;;;;5044705;28;20482;-46
2022/10/15 05:52:22;;;;;;;1.27;0.93;;;21.10;76.20;;;;;;5048966;28;20320;-49
2022/10/15 05:54:47;;;;;;;0.80;0.80;;;21.10;76.20;;;;;;5046733;28;20538;-48
2022/10/15 05:57:13;;;;;;;1.07;0.97;;;21.10;76.20;;;;;;5046348;28;20196;-46
2022/10/15 05:59:38;;;;;;;1.90;0.83;;;21.10;75.90;;;;;;5047286;28;20185;-47
2022/10/15 06:02:04;;;;;;;1.10;1.00;;;21.20;75.80;;;;;;5044924;28;20626;-47
2022/10/15 06:04:31;;;;;;;1.73;1.10;;;21.10;75.90;;;;;;5048868;28;20203;-49
2022/10/15 06:06:57;;;;;;;1.63;1.40;;;21.20;75.80;;;;;;5049893;28;20231;-46
2022/10/15 06:09:22;;;;;;;0.83;0.80;;;21.20;75.50;;;;;;5055109;28;20435;-48
2022/10/15 06:11:48;;;;;;;1.10;0.90;;;21.20;75.40;;;;;;5047069;28;20235;-46
2022/10/15 06:14:14;;;;;;;3.73;1.00;;;21.20;75.50;;;;;;5050466;28;20197;-47
2022/10/15 06:16:39;;;;;;;1.57;1.17;;;21.20;75.30;;;;;;5046481;28;20201;-46
2022/10/15 06:19:05;;;;;;;1.10;1.00;;;21.20;75.40;;;;;;5048799;28;20240;-47
2022/10/15 06:21:31;;;;;;;1.37;1.13;;;21.10;75.70;;;;;;5046185;28;20303;-46
2022/10/15 06:23:56;;;;;;;1.40;1.30;;;21.00;75.80;;;;;;5048832;28;20195;-46
2022/10/15 06:26:22;;;;;;;1.03;0.93;;;21.00;75.90;;;;;;5041240;28;20276;-48
2022/10/15 06:28:48;;;;;;;1.10;0.90;;;21.00;75.60;;;;;;5041445;28;20195;-47
2022/10/15 06:31:13;;;;;;;0.90;0.73;;;20.90;76.00;;;;;;5045198;28;20383;-46
2022/10/15 06:33:39;;;;;;;1.10;1.00;;;20.80;75.70;;;;;;5048052;28;20196;-47
2022/10/15 06:36:07;;;;;;;1.33;1.20;;;20.80;76.10;;;;;;5050095;28;20185;-47
2022/10/15 06:38:33;;;;;;;1.07;0.80;;;20.80;76.80;;;;;;5042555;28;20196;-47
2022/10/15 06:40:59;;;;;;;1.43;0.80;;;20.80;76.20;;;;;;5048440;28;20773;-47
2022/10/15 06:43:24;;;;;;;1.07;0.90;;;20.90;75.90;;;;;;5048586;28;20561;-47
2022/10/15 06:45:50;;;;;;;2.13;1.00;;;21.00;75.80;;;;;;5046861;28;20242;-47
2022/10/15 06:48:16;;;;;;;1.50;0.97;;;21.00;75.90;;;;;;5048767;28;20192;-47
2022/10/15 06:50:42;;;;;;;1.00;0.70;;;21.00;75.60;;;;;;5045991;28;20224;-47
2022/10/15 06:53:08;;;;;;;0.90;0.90;;;21.10;75.50;;;;;;5046031;28;20443;-48
2022/10/15 06:55:34;;;;;;;1.43;0.83;;;21.10;75.20;;;;;;5051632;28;20194;-48
2022/10/15 06:57:59;;;;;;;1.93;0.80;;;21.10;75.00;;;;;;5039008;28;20598;-47
2022/10/15 07:00:26;;;;;;;1.70;0.90;;;21.10;75.10;;;;;;5051955;28;20439;-46
2022/10/15 07:02:52;;;;;;;4.00;0.90;;;21.10;75.10;;;;;;5033420;28;20196;-51
2022/10/15 07:05:18;;;;;;;0.93;0.93;;;21.10;75.00;;;;;;5038890;28;20897;-50
2022/10/15 07:07:54;;;;;;;1.53;0.67;;;21.10;74.80;;;;;;5041586;28;20850;-51
2022/10/15 07:10:20;;;;;;;0.80;0.77;;;21.20;74.80;;;;;;5047005;28;20516;-47
2022/10/15 07:12:46;;;;;;;1.20;0.77;;;21.10;74.50;;;;;;5044015;28;20443;-48
2022/10/15 07:15:12;;;;;;;1.87;0.80;;;21.20;74.50;;;;;;5046885;28;20562;-47
2022/10/15 07:17:38;;;;;;;2.37;0.70;;;21.20;74.20;;;;;;5046549;28;20530;-46
2022/10/15 07:20:04;;;;;;;0.90;0.90;;;21.20;73.90;;;;;;5042387;28;20237;-49
2022/10/15 07:22:30;;;;;;;1.03;1.00;;;21.20;73.40;;;;;;5046447;28;20475;-49
2022/10/15 07:24:55;;;;;;;1.13;1.00;;;21.30;73.40;;;;;;5045163;28;20475;-47
2022/10/15 07:27:21;;;;;;;1.20;1.10;;;21.30;73.30;;;;;;5048268;28;20243;-48
2022/10/15 07:29:47;;;;;;;0.83;0.83;;;21.30;73.30;;;;;;5049874;28;20667;-47
2022/10/15 07:32:12;;;;;;;0.90;0.67;;;21.40;73.40;;;;;;5049187;28;20196;-48
2022/10/15 07:34:41;;;;;;;2.37;1.00;;;21.30;73.20;;;;;;5044350;28;20224;-51
2022/10/15 07:37:06;;;;;;;1.23;0.90;;;21.20;73.00;;;;;;5047553;28;20185;-46
2022/10/15 07:39:32;;;;;;;1.07;0.70;;;21.20;72.80;;;;;;5045032;28;20453;-45
2022/10/15 07:41:57;;;;;;;0.90;0.90;;;21.20;72.90;;;;;;5049011;28;20208;-47
2022/10/15 07:44:23;;;;;;;1.63;0.90;;;21.20;73.30;;;;;;5050811;28;20682;-46
2022/10/15 07:46:49;;;;;;;3.47;0.90;;;21.30;73.10;;;;;;5045957;28;20616;-49
2022/10/15 07:49:15;;;;;;;1.63;1.10;;;21.40;73.20;;;;;;5051984;28;20202;-48
2022/10/15 07:51:41;;;;;;;3.40;1.03;;;21.40;73.40;;;;;;5050781;28;20260;-46
2022/10/15 07:54:07;;;;;;;1.27;0.97;;;21.50;73.80;;;;;;5050045;28;20977;-48
2022/10/15 07:56:32;;;;;;;2.27;0.90;;;21.50;74.10;;;;;;5049283;28;20435;-45
2022/10/15 07:58:58;;;;;;;1.67;1.07;;;21.50;73.30;;;;;;5046669;28;20568;-45
2022/10/15 08:01:23;;;;;;;1.20;1.00;;;21.40;73.90;;;;;;5048532;28;20193;-48
2022/10/15 08:03:49;;;;;;;2.47;2.17;;;21.40;74.70;;;;;;5050158;28;20210;-47
2022/10/15 08:06:15;;;;;;;4.83;3.80;;;21.50;74.30;;;;;;5045556;28;20196;-45
2022/10/15 08:08:41;;;;;;;4.00;3.10;;;21.60;73.90;;;;;;5048004;28;20197;-46
2022/10/15 08:11:12;;;;;;;3.20;3.00;;;21.60;73.80;;;;;;5038952;28;21016;-47
2022/10/15 08:13:40;;;;;;;3.37;2.83;;;21.60;73.40;;;;;;5046487;28;20209;-47
2022/10/15 08:16:11;;;;;;;4.03;1.90;;;21.60;73.00;;;;;;5045381;28;20440;-46
2022/10/15 08:18:36;;;;;;;5.53;1.30;;;21.60;72.60;;;;;;5044916;28;20450;-49
2022/10/15 08:21:04;;;;;;;0.97;0.93;;;21.70;72.70;;;;;;5047521;28;20820;-46
2022/10/15 08:23:30;;;;;;;1.00;1.00;;;21.70;72.40;;;;;;5047453;28;20196;-45
2022/10/15 08:25:59;;;;;;;2.10;1.23;;;21.70;72.40;;;;;;5046889;28;20497;-47
2022/10/15 08:28:26;;;;;;;1.00;0.80;;;21.70;72.40;;;;;;5046285;28;20195;-45
2022/10/15 08:30:52;;;;;;;1.30;1.03;;;21.70;72.70;;;;;;5049578;28;20514;-47
2022/10/15 08:33:17;;;;;;;1.33;0.87;;;21.70;72.60;;;;;;5045940;28;20868;-46
2022/10/15 08:35:43;;;;;;;1.80;0.93;;;21.60;72.70;;;;;;5049742;28;20592;-46
2022/10/15 08:38:12;;;;;;;2.40;1.10;;;21.60;72.90;;;;;;5037345;28;20219;-49
2022/10/15 08:40:41;;;;;;;1.57;1.30;;;21.40;73.90;;;;;;5046091;28;20189;-49
2022/10/15 08:43:37;;;;;;;1.27;0.90;;;21.50;73.90;;;;;;5047173;28;20443;-48
2022/10/15 08:46:10;;;;;;;1.13;1.00;;;21.40;73.80;;;;;;5043962;28;20534;-47
2022/10/15 08:48:44;;;;;;;0.80;0.80;;;21.50;73.80;;;;;;5042570;28;20443;-51
2022/10/15 08:51:17;;;;;;;2.30;0.93;;;21.50;73.60;;;;;;5037711;28;20539;-50
2022/10/15 08:53:48;;;;;;;1.20;1.10;;;21.60;73.70;;;;;;5047948;28;20455;-46
2022/10/15 08:56:22;;;;;;;2.17;1.30;;;21.70;74.10;;;;;;5046486;28;20500;-46
2022/10/15 08:59:15;;;;;;;1.43;0.90;;;21.70;73.90;;;;;;5044754;28;20452;-48
2022/10/15 09:01:53;;;;;;;0.97;0.97;;;21.80;73.50;;;;;;5042740;28;20496;-47
2022/10/15 09:04:35;;;;;;;2.13;1.03;;;21.90;73.30;;;;;;5048557;28;20942;-47
2022/10/15 09:07:20;;;;;;;2.23;1.10;;;22.00;72.90;;;;;;5039810;28;20451;-49
2022/10/15 09:10:16;;;;;;;1.30;1.20;;;22.00;72.60;;;;;;5040746;28;20492;-48
2022/10/15 09:13:00;;;;;;;1.50;1.20;;;21.90;72.70;;;;;;5047240;28;20463;-47
2022/10/15 09:15:29;;;;;;;1.23;1.13;;;21.70;73.60;;;;;;5048875;28;20455;-47
2022/10/15 09:17:55;;;;;;;1.70;0.90;;;21.70;73.50;;;;;;5049584;28;20442;-47
2022/10/15 09:20:32;;;;;;;1.47;1.00;;;21.80;73.50;;;;;;5045939;28;20538;-46
2022/10/15 09:22:58;;;;;;;1.20;0.97;;;21.60;74.20;;;;;;5045512;28;20279;-48
2022/10/15 09:25:26;;;;;;;2.20;1.10;;;21.60;74.20;;;;;;5039181;28;20526;-47
2022/10/15 09:27:52;;;;;;;4.37;1.00;;;21.50;74.40;;;;;;5047814;28;20529;-47
2022/10/15 09:30:34;;;;;;;1.20;1.10;;;21.60;74.90;;;;;;5046966;28;20494;-47
2022/10/15 09:33:15;;;;;;;1.37;1.00;;;21.80;74.80;;;;;;5042602;28;20829;-46
2022/10/15 09:35:45;;;;;;;1.33;0.97;;;21.70;74.60;;;;;;5047039;28;20443;-48
2022/10/15 09:38:41;;;;;;;3.03;1.03;;;21.70;75.20;;;;;;5044658;28;20530;-51
2022/10/15 09:41:15;;;;;;;3.57;1.03;;;21.80;75.10;;;;;;5039868;28;20455;-50
2022/10/15 09:43:44;;;;;;;5.00;1.60;;;21.90;75.40;;;;;;5044962;28;20451;-47
2022/10/15 09:46:10;;;;;;;1.20;1.10;;;22.00;75.20;;;;;;5046208;28;20440;-49
2022/10/15 09:48:56;;;;;;;2.23;1.07;;;22.00;75.20;;;;;;5049491;28;20446;-48
2022/10/15 09:51:42;;;;;;;1.53;0.90;;;22.00;74.30;;;;;;5041847;28;20482;-50
2022/10/15 09:54:11;;;;;;;1.70;1.10;;;22.00;74.40;;;;;;5048227;28;20446;-46
2022/10/15 09:56:47;;;;;;;6.70;1.23;;;22.10;74.40;;;;;;5039663;28;20813;-46
2022/10/15 09:59:17;;;;;;;1.70;1.17;;;22.20;74.40;;;;;;5045728;28;21078;-46
2022/10/15 10:02:00;;;;;;;2.50;1.00;;;22.20;75.50;;;;;;5046023;28;20797;-45
2022/10/15 10:04:28;;;;;;;1.40;1.10;;;22.40;75.90;;;;;;5046670;28;20442;-45
2022/10/15 10:06:58;;;;;;;2.10;1.90;;;22.50;75.80;;;;;;5047386;28;20521;-46
2022/10/15 10:09:36;;;;;;;1.50;1.33;;;22.60;75.90;;;;;;5049116;28;20805;-47
2022/10/15 10:12:05;;;;;;;2.40;1.00;;;22.60;77.00;;;;;;5048380;28;20487;-47
2022/10/15 10:14:51;;;;;;;1.17;1.07;;;22.60;76.40;;;;;;5050423;28;20496;-48
2022/10/15 10:17:25;;;;;;;1.20;0.93;;;22.70;76.50;;;;;;5043588;28;20596;-45
2022/10/15 10:20:17;;;;;;;2.40;0.90;;;22.80;75.90;;;;;;5045825;28;21069;-48
2022/10/15 10:22:47;;;;;;;1.27;0.70;;;22.70;73.00;;;;;;5040575;28;20562;-45
2022/10/15 10:25:28;;;;;;;0.93;0.80;;;22.30;73.40;;;;;;5047644;28;20443;-49
2022/10/15 10:28:24;;;;;;;1.27;0.60;;;22.20;72.20;;;;;;5041782;28;20828;-46
2022/10/15 10:30:55;;;;;;;0.60;0.60;;;22.20;73.50;;;;;;5042834;28;20548;-46
2022/10/15 10:33:34;;;;;;;0.80;0.73;;;22.20;72.80;;;;;;5050545;28;20428;-48
2022/10/15 10:36:00;;;;;;;3.70;0.90;;;22.20;73.10;;;;;;5044133;28;20448;-45
2022/10/15 10:38:28;;;;;;;0.80;0.70;;;22.30;73.70;;;;;;5045888;28;20447;-47
2022/10/15 10:40:57;;;;;;;0.70;0.67;;;22.60;73.20;;;;;;5045709;28;20832;-50
2022/10/15 10:43:28;;;;;;;0.70;0.70;;;22.80;73.50;;;;;;5041713;28;20462;-47
2022/10/15 10:45:55;;;;;;;1.67;0.70;;;22.70;69.60;;;;;;5050342;28;20430;-45
2022/10/15 10:48:42;;;;;;;1.17;0.60;;;22.40;70.30;;;;;;5048832;28;20781;-45
2022/10/15 10:51:18;;;;;;;1.13;0.77;;;22.50;69.30;;;;;;5047558;28;21051;-46
2022/10/15 10:53:44;;;;;;;1.63;0.80;;;22.70;69.90;;;;;;5043484;28;20442;-45
2022/10/15 10:56:12;;;;;;;1.43;0.97;;;22.70;68.80;;;;;;5039730;28;20517;-47
2022/10/15 10:58:38;;;;;;;0.60;0.60;;;22.70;67.80;;;;;;5047409;28;20301;-47
2022/10/15 11:01:03;;;;;;;1.00;0.90;;;22.40;66.70;;;;;;5047303;28;20435;-46
2022/10/15 11:03:39;;;;;;;0.80;0.80;;;22.00;67.50;;;;;;5043328;28;20196;-45
2022/10/15 11:06:28;;;;;;;0.80;0.80;;;22.00;68.00;;;;;;5047258;28;20199;-47
2022/10/15 11:09:06;;;;;;;3.70;0.80;;;22.30;68.80;;;;;;5048004;28;20443;-45
2022/10/15 11:11:57;;;;;;;1.03;0.70;;;22.40;67.10;;;;;;5049704;28;20498;-46
2022/10/15 11:14:28;;;;;;;1.27;0.80;;;22.30;64.70;;;;;;5051088;28;20523;-48
2022/10/15 11:17:02;;;;;;;2.33;0.80;;;22.30;64.90;;;;;;5051557;28;21239;-47
2022/10/15 11:19:27;;;;;;;0.93;0.80;;;22.20;64.60;;;;;;5050569;28;20470;-46
2022/10/15 11:22:18;;;;;;;1.10;0.90;;;22.10;64.10;;;;;;5047850;28;20534;-48
2022/10/15 11:25:16;;;;;;;0.90;0.80;;;22.20;65.50;;;;;;5048351;28;20567;-50
2022/10/15 11:27:53;;;;;;;1.33;0.97;;;22.30;65.80;;;;;;5047769;28;20473;-47
2022/10/15 11:30:44;;;;;;;2.87;0.97;;;22.60;65.30;;;;;;5050448;28;20475;-46
2022/10/15 11:33:36;;;;;;;0.90;0.77;;;22.60;62.60;;;;;;5039392;28;20458;-46
2022/10/15 11:36:27;;;;;;;3.37;0.80;;;22.90;64.90;;;;;;5045919;28;20455;-46
2022/10/15 11:39:07;;;;;;;1.13;0.93;;;23.00;62.80;;;;;;5049493;28;20501;-47
2022/10/15 11:41:54;;;;;;;1.33;0.87;;;23.30;62.10;;;;;;5047501;28;20574;-46
2022/10/15 11:44:47;;;;;;;1.63;1.03;;;23.50;62.70;;;;;;5045979;28;20482;-46
2022/10/15 11:47:23;;;;;;;1.07;0.70;;;23.60;61.10;;;;;;5030469;28;20606;-45
2022/10/15 11:49:59;;;;;;;1.03;0.93;;;23.80;61.10;;;;;;5035095;28;20815;-51
2022/10/15 11:52:46;;;;;;;1.20;0.70;;;23.80;59.30;;;;;;5043250;28;20458;-46
2022/10/15 11:55:34;;;;;;;1.87;0.90;;;24.00;57.80;;;;;;5049586;28;20515;-47
2022/10/15 11:58:05;;;;;;;3.90;1.10;;;24.10;58.60;;;;;;5046694;28;20446;-47
2022/10/15 12:00:34;;;;;;;1.30;1.03;;;24.10;57.20;;;;;;5034767;28;20451;-52
2022/10/15 12:03:15;;;;;;;0.73;0.73;;;24.20;57.70;;;;;;5041807;28;20454;-47
2022/10/15 12:05:48;;;;;;;1.00;1.00;;;24.00;57.20;;;;;;5046972;28;21636;-48
2022/10/15 12:08:15;;;;;;;3.73;1.30;;;23.90;57.50;;;;;;5048539;28;20435;-48
2022/10/15 12:11:03;;;;;;;2.40;1.10;;;24.10;57.00;;;;;;5045303;28;20578;-47
2022/10/15 12:13:40;;;;;;;1.30;0.80;;;24.30;58.10;;;;;;5049620;28;20461;-51
2022/10/15 12:16:23;;;;;;;0.80;0.73;;;24.30;57.30;;;;;;5048491;28;20501;-51
2022/10/15 12:18:56;;;;;;;1.13;0.87;;;24.30;57.90;;;;;;5052948;28;20451;-46
2022/10/15 12:21:42;;;;;;;1.13;1.03;;;24.50;56.60;;;;;;5050693;28;20966;-47
2022/10/15 12:24:47;;;;;;;3.03;0.90;;;24.50;55.90;;;;;;5051984;28;20439;-47
2022/10/15 12:27:19;;;;;;;1.80;0.90;;;24.60;56.90;;;;;;5050955;28;20451;-49
2022/10/15 12:29:48;;;;;;;1.27;1.00;;;24.80;56.30;;;;;;5052974;28;21041;-47
2022/10/15 12:32:26;;;;;;;1.67;1.00;;;24.70;56.00;;;;;;5051138;28;20482;-46
2022/10/15 12:35:05;;;;;;;2.30;0.90;;;24.40;55.20;;;;;;5052442;28;20454;-46
2022/10/15 12:37:34;;;;;;;0.70;0.70;;;24.30;56.00;;;;;;5052052;28;20465;-47
2022/10/15 12:40:22;;;;;;;1.93;0.80;;;23.90;55.80;;;;;;5050750;28;20447;-46
2022/10/15 12:43:04;;;;;;;2.10;0.80;;;23.60;56.10;;;;;;5050878;28;20484;-46
2022/10/15 12:45:48;;;;;;;1.57;1.00;;;23.40;56.60;;;;;;5048410;28;20521;-47
2022/10/15 12:48:14;;;;;;;0.87;0.87;;;23.40;57.60;;;;;;5041687;28;20480;-46
2022/10/15 12:50:40;;;;;;;1.33;0.60;;;23.30;57.10;;;;;;5051740;28;20482;-47
2022/10/15 12:53:28;;;;;;;0.60;0.60;;;23.20;57.30;;;;;;5052123;28;20656;-46
2022/10/15 12:56:15;;;;;;;1.43;0.93;;;23.20;57.80;;;;;;5051233;28;20197;-46
2022/10/15 12:58:43;;;;;;;0.83;0.83;;;23.30;58.50;;;;;;5051466;28;20431;-46
2022/10/15 13:01:14;;;;;;;4.97;1.10;;;23.10;59.20;;;;;;5050658;28;20831;-48
2022/10/15 13:03:50;;;;;;;0.80;0.80;;;22.80;60.10;;;;;;5050009;28;21021;-46
2022/10/15 13:06:19;;;;;;;1.63;1.17;;;23.00;61.70;;;;;;5042313;28;20447;-47